createdAt,value
2022-10-08T00:01:10.234Z,39.20
2022-10-08T00:03:39.741Z,36.30
2022-10-08T00:06:16.388Z,36.75
2022-10-08T00:08:49.411Z,37.75
2022-10-08T00:11:20.079Z,37.40
2022-10-08T00:13:48.620Z,35.55
2022-10-08T00:16:37.829Z,33.90
2022-10-08T00:19:14.070Z,30.42
2022-10-08T00:21:43.893Z,34.50
2022-10-08T00:24:16.829Z,35.53
2022-10-08T00:26:44.625Z,34.25
2022-10-08T00:29:14.332Z,33.72
2022-10-08T00:31:44.510Z,34.63
2022-10-08T00:34:15.977Z,34.35
2022-10-08T00:36:42.829Z,35.03
2022-10-08T00:39:15.878Z,34.78
2022-10-08T00:41:45.314Z,31.90
2022-10-08T00:44:50.848Z,31.45
2022-10-08T00:47:32.933Z,30.77
2022-10-08T00:50:01.940Z,32.33
2022-10-08T00:52:35.395Z,33.38
2022-10-08T00:55:06.785Z,31.80
2022-10-08T00:57:35.987Z,32.00
2022-10-08T01:00:12.678Z,32.50
2022-10-08T01:02:39.622Z,33.20
2022-10-08T01:05:07.677Z,30.88
2022-10-08T01:07:45.055Z,31.35
2022-10-08T01:10:17.822Z,31.98
2022-10-08T01:12:47.962Z,32.55
2022-10-08T01:15:51.135Z,33.00
2022-10-08T01:18:27.954Z,30.10
2022-10-08T01:21:15.824Z,31.48
2022-10-08T01:23:59.531Z,31.60
2022-10-08T01:26:48.191Z,31.40
2022-10-08T01:29:16.582Z,32.40
2022-10-08T01:31:51.786Z,28.85
2022-10-08T01:34:31.975Z,30.20
2022-10-08T01:37:01.262Z,26.40
2022-10-08T01:39:33.005Z,26.05
2022-10-08T01:42:03.160Z,28.77
2022-10-08T01:44:36.043Z,27.55
2022-10-08T01:47:07.710Z,27.98
2022-10-08T01:49:43.369Z,27.88
2022-10-08T01:52:20.420Z,28.67
2022-10-08T01:54:49.534Z,27.48
2022-10-08T01:57:16.730Z,28.33
2022-10-08T01:59:54.868Z,27.80
2022-10-08T02:02:24.795Z,25.83
2022-10-08T02:04:54.460Z,26.55
2022-10-08T02:07:43.004Z,24.58
2022-10-08T02:10:14.078Z,27.58
2022-10-08T02:12:42.168Z,27.98
2022-10-08T02:15:33.866Z,28.25
2022-10-08T02:18:15.988Z,27.48
2022-10-08T02:20:52.094Z,29.30
2022-10-08T02:23:37.746Z,27.83
2022-10-08T02:26:08.607Z,29.05
2022-10-08T02:28:49.494Z,28.67
2022-10-08T02:31:40.854Z,27.70
2022-10-08T02:34:15.010Z,27.42
2022-10-08T02:36:45.690Z,27.83
2022-10-08T02:39:15.719Z,26.73
2022-10-08T02:41:52.339Z,27.48
2022-10-08T02:44:26.572Z,27.83
2022-10-08T02:46:57.926Z,27.83
2022-10-08T02:49:33.737Z,21.67
2022-10-08T02:52:02.797Z,26.17
2022-10-08T02:54:35.271Z,26.77
2022-10-08T02:57:11.616Z,26.15
2022-10-08T02:59:38.539Z,26.40
2022-10-08T03:02:06.294Z,25.13
2022-10-08T03:04:45.853Z,24.33
2022-10-08T03:07:15.127Z,25.77
2022-10-08T03:09:45.752Z,26.15
2022-10-08T03:12:12.895Z,23.08
2022-10-08T03:14:43.709Z,23.63
2022-10-08T03:17:14.276Z,26.17
2022-10-08T03:19:41.160Z,25.88
2022-10-08T03:22:08.271Z,25.38
2022-10-08T03:24:36.146Z,25.70
2022-10-08T03:27:03.931Z,25.80
2022-10-08T03:29:30.889Z,26.40
2022-10-08T03:31:57.694Z,26.17
2022-10-08T03:34:25.551Z,26.75
2022-10-08T03:36:52.376Z,27.25
2022-10-08T03:39:19.333Z,27.48
2022-10-08T03:41:46.146Z,26.75
2022-10-08T03:44:12.935Z,26.50
2022-10-08T03:46:40.626Z,25.50
2022-10-08T03:49:07.461Z,26.25
2022-10-08T03:51:34.266Z,24.73
2022-10-08T03:54:01.068Z,24.40
2022-10-08T03:56:27.886Z,24.30
2022-10-08T03:58:56.978Z,24.35
2022-10-08T04:01:25.393Z,24.63
2022-10-08T04:03:52.790Z,24.60
2022-10-08T04:06:20.432Z,23.85
2022-10-08T04:08:47.280Z,23.80
2022-10-08T04:11:16.263Z,21.40
2022-10-08T04:13:43.921Z,23.30
2022-10-08T04:16:14.132Z,23.75
2022-10-08T04:18:41.934Z,22.42
2022-10-08T04:21:12.074Z,22.50
2022-10-08T04:23:40.810Z,21.13
2022-10-08T04:26:09.106Z,23.58
2022-10-08T04:28:38.837Z,23.10
2022-10-08T04:31:12.603Z,22.23
2022-10-08T04:33:39.524Z,23.85
2022-10-08T04:36:14.854Z,24.67
2022-10-08T04:38:45.587Z,24.40
2022-10-08T04:41:15.334Z,24.45
2022-10-08T04:43:43.957Z,23.58
2022-10-08T04:46:13.238Z,23.83
2022-10-08T04:48:40.603Z,24.25
2022-10-08T04:51:10.743Z,23.73
2022-10-08T04:53:38.208Z,25.65
2022-10-08T04:56:20.766Z,27.95
2022-10-08T04:58:48.073Z,24.27
2022-10-08T05:01:17.722Z,26.88
2022-10-08T05:03:48.373Z,26.80
2022-10-08T05:06:20.845Z,23.73
2022-10-08T05:08:48.553Z,26.25
2022-10-08T05:11:16.348Z,25.48
2022-10-08T05:13:43.927Z,25.15
2022-10-08T05:16:13.858Z,25.27
2022-10-08T05:18:42.310Z,24.63
2022-10-08T05:21:12.275Z,26.73
2022-10-08T05:23:40.210Z,25.77
2022-10-08T05:26:19.397Z,27.83
2022-10-08T05:28:47.681Z,26.95
2022-10-08T05:31:18.041Z,27.58
2022-10-08T05:33:45.220Z,25.90
2022-10-08T05:36:18.337Z,24.80
2022-10-08T05:38:45.296Z,23.60
2022-10-08T05:41:17.183Z,22.60
2022-10-08T05:43:45.242Z,23.60
2022-10-08T05:46:12.692Z,23.92
2022-10-08T05:48:39.967Z,21.77
2022-10-08T05:51:09.124Z,23.20
2022-10-08T05:53:38.318Z,21.35
2022-10-08T05:56:07.584Z,20.63
2022-10-08T05:58:36.314Z,19.20
2022-10-08T06:01:06.561Z,19.42
2022-10-08T06:03:33.541Z,19.27
2022-10-08T06:06:06.425Z,18.27
2022-10-08T06:08:33.919Z,17.85
2022-10-08T06:11:01.135Z,18.25
2022-10-08T06:13:28.235Z,18.08
2022-10-08T06:16:06.817Z,15.50
2022-10-08T06:18:36.478Z,17.77
2022-10-08T06:21:24.438Z,15.80
2022-10-08T06:23:57.760Z,18.67
2022-10-08T06:26:30.557Z,16.75
2022-10-08T06:29:01.511Z,17.80
2022-10-08T06:31:28.540Z,17.00
2022-10-08T06:33:57.040Z,16.15
2022-10-08T06:36:28.531Z,16.13
2022-10-08T06:39:00.568Z,17.15
2022-10-08T06:41:30.335Z,16.60
2022-10-08T06:43:57.237Z,19.45
2022-10-08T06:46:24.128Z,15.60
2022-10-08T06:48:50.953Z,15.75
2022-10-08T06:51:19.027Z,13.48
2022-10-08T06:53:52.594Z,13.50
2022-10-08T06:56:19.442Z,12.05
2022-10-08T06:58:47.565Z,17.63
2022-10-08T07:01:20.083Z,13.20
2022-10-08T07:04:06.844Z,13.15
2022-10-08T07:06:33.861Z,15.63
2022-10-08T07:09:01.982Z,16.45
2022-10-08T07:11:31.331Z,15.10
2022-10-08T07:13:58.417Z,15.75
2022-10-08T07:16:27.036Z,16.27
2022-10-08T07:18:56.452Z,16.00
2022-10-08T07:21:23.352Z,16.30
2022-10-08T07:23:50.859Z,17.90
2022-10-08T07:26:21.029Z,14.50
2022-10-08T07:28:56.907Z,13.52
2022-10-08T07:31:28.080Z,12.10
2022-10-08T07:33:56.221Z,12.63
2022-10-08T07:36:25.088Z,10.13
2022-10-08T07:39:04.942Z,11.48
2022-10-08T07:41:32.820Z,12.38
2022-10-08T07:44:04.289Z,11.73
2022-10-08T07:46:36.835Z,11.07
2022-10-08T07:49:04.861Z,9.20
2022-10-08T07:51:33.764Z,9.60
2022-10-08T07:54:02.935Z,9.63
2022-10-08T07:56:31.248Z,10.20
2022-10-08T07:58:59.041Z,9.63
2022-10-08T08:01:30.494Z,11.27
2022-10-08T08:04:06.263Z,11.60
2022-10-08T08:06:37.692Z,7.15
2022-10-08T08:09:04.463Z,7.60
2022-10-08T08:11:31.530Z,10.30
2022-10-08T08:13:58.430Z,8.73
2022-10-08T08:16:27.423Z,8.43
2022-10-08T08:18:56.562Z,8.75
2022-10-08T08:21:29.027Z,8.73
2022-10-08T08:23:57.759Z,7.97
2022-10-08T08:26:28.815Z,9.15
2022-10-08T08:28:58.841Z,11.57
2022-10-08T08:31:30.828Z,10.18
2022-10-08T08:34:01.755Z,7.70
2022-10-08T08:36:31.671Z,9.88
2022-10-08T08:38:59.325Z,7.53
2022-10-08T08:41:36.043Z,7.63
2022-10-08T08:44:10.577Z,7.85
2022-10-08T08:46:42.518Z,7.00
2022-10-08T08:49:23.197Z,6.85
2022-10-08T08:51:50.081Z,6.45
2022-10-08T08:54:16.981Z,7.68
2022-10-08T08:56:44.200Z,6.93
2022-10-08T08:59:34.318Z,9.25
2022-10-08T09:02:06.033Z,7.13
2022-10-08T09:04:45.093Z,7.03
2022-10-08T09:07:17.243Z,6.70
2022-10-08T09:09:48.613Z,6.93
2022-10-08T09:12:21.045Z,6.10
2022-10-08T09:14:53.101Z,7.05
2022-10-08T09:17:27.929Z,8.20
2022-10-08T09:19:54.821Z,8.57
2022-10-08T09:22:31.565Z,5.50
2022-10-08T09:25:06.576Z,4.57
2022-10-08T09:27:43.529Z,6.60
2022-10-08T09:30:29.357Z,7.50
2022-10-08T09:33:16.519Z,6.57
2022-10-08T09:35:49.334Z,6.88
2022-10-08T09:38:26.337Z,5.07
2022-10-08T09:41:07.041Z,8.52
2022-10-08T09:43:35.478Z,11.57
2022-10-08T09:46:12.066Z,7.88
2022-10-08T09:48:39.749Z,6.50
2022-10-08T09:51:15.412Z,10.25
2022-10-08T09:53:42.285Z,6.93
2022-10-08T09:56:10.917Z,9.40
2022-10-08T09:58:53.943Z,8.82
2022-10-08T10:01:21.500Z,8.35
2022-10-08T10:03:55.688Z,7.40
2022-10-08T10:06:46.130Z,9.05
2022-10-08T10:09:41.091Z,12.02
2022-10-08T10:12:10.792Z,7.60
2022-10-08T10:14:45.286Z,9.10
2022-10-08T10:17:34.597Z,8.45
2022-10-08T10:20:43.922Z,9.38
2022-10-08T10:23:39.372Z,7.30
2022-10-08T10:26:15.550Z,8.18
2022-10-08T10:28:54.444Z,5.10
2022-10-08T10:31:45.391Z,6.40
2022-10-08T10:34:25.139Z,7.85
2022-10-08T10:36:59.095Z,7.50
2022-10-08T10:39:44.634Z,5.07
2022-10-08T10:42:20.713Z,7.72
2022-10-08T10:44:56.450Z,8.93
2022-10-08T10:47:31.005Z,9.13
2022-10-08T10:50:01.367Z,9.75
2022-10-08T10:53:06.838Z,5.80
2022-10-08T10:55:41.195Z,8.23
2022-10-08T10:58:21.961Z,7.07
2022-10-08T11:01:04.472Z,11.48
2022-10-08T11:03:57.441Z,10.93
2022-10-08T11:06:45.942Z,9.30
2022-10-08T11:09:12.818Z,7.85
2022-10-08T11:11:52.313Z,9.20
2022-10-08T11:14:44.606Z,8.05
2022-10-08T11:17:37.228Z,6.55
2022-10-08T11:20:22.439Z,10.35
2022-10-08T11:23:20.504Z,13.10
2022-10-08T11:26:22.402Z,7.75
2022-10-08T11:28:59.896Z,9.02
2022-10-08T11:31:47.127Z,8.55
2022-10-08T11:34:20.092Z,9.23
2022-10-08T11:36:53.023Z,6.75
2022-10-08T11:39:21.097Z,6.15
2022-10-08T11:41:55.253Z,8.13
2022-10-08T11:44:22.508Z,8.00
2022-10-08T11:46:49.492Z,8.20
2022-10-08T11:49:16.278Z,9.65
2022-10-08T11:51:45.739Z,9.15
2022-10-08T11:54:38.602Z,8.50
2022-10-08T11:57:16.434Z,8.80
2022-10-08T11:59:45.282Z,8.07
2022-10-08T12:02:33.726Z,6.82
2022-10-08T12:05:18.879Z,9.75
2022-10-08T12:07:57.554Z,11.35
2022-10-08T12:10:29.532Z,7.43
2022-10-08T12:12:59.892Z,6.78
2022-10-08T12:15:27.834Z,8.45
2022-10-08T12:17:56.101Z,8.13
2022-10-08T12:20:32.834Z,8.80
2022-10-08T12:23:10.985Z,11.73
2022-10-08T12:25:49.016Z,8.80
2022-10-08T12:28:21.943Z,9.60
2022-10-08T12:30:54.486Z,7.90
2022-10-08T12:33:22.502Z,8.63
2022-10-08T12:36:01.282Z,10.93
2022-10-08T12:38:51.241Z,9.98
2022-10-08T12:41:28.604Z,10.13
2022-10-08T12:44:08.524Z,9.82
2022-10-08T12:46:50.892Z,11.23
2022-10-08T12:49:58.321Z,11.15
2022-10-08T12:52:26.091Z,10.88
2022-10-08T12:54:56.380Z,14.05
2022-10-08T12:57:38.153Z,11.68
2022-10-08T13:00:11.391Z,11.60
2022-10-08T13:02:41.828Z,11.45
2022-10-08T13:05:32.050Z,12.82
2022-10-08T13:08:17.083Z,12.90
2022-10-08T13:10:44.026Z,12.38
2022-10-08T13:13:50.346Z,12.63
2022-10-08T13:16:23.047Z,12.40
2022-10-08T13:18:52.904Z,13.25
2022-10-08T13:21:24.535Z,13.68
2022-10-08T13:23:52.148Z,13.20
2022-10-08T13:26:52.189Z,13.48
2022-10-08T13:29:36.142Z,14.23
2022-10-08T13:32:15.702Z,13.77
2022-10-08T13:34:46.432Z,13.45
2022-10-08T13:37:21.257Z,14.48
2022-10-08T13:39:54.250Z,14.77
2022-10-08T13:42:24.798Z,13.32
2022-10-08T13:44:52.125Z,13.20
2022-10-08T13:47:21.841Z,13.50
2022-10-08T13:49:49.207Z,13.57
2022-10-08T13:52:21.576Z,21.52
2022-10-08T13:54:51.549Z,32.33
2022-10-08T13:57:18.398Z,31.05
2022-10-08T13:59:45.374Z,33.20
2022-10-08T14:02:14.350Z,29.55
2022-10-08T14:04:41.361Z,28.90
2022-10-08T14:07:27.306Z,26.10
2022-10-08T14:09:57.628Z,25.88
2022-10-08T14:12:27.017Z,30.05
2022-10-08T14:14:53.938Z,29.48
2022-10-08T14:17:21.152Z,27.25
2022-10-08T14:19:48.997Z,25.60
2022-10-08T14:22:16.697Z,25.73
2022-10-08T14:24:44.058Z,25.08
2022-10-08T14:27:10.866Z,22.13
2022-10-08T14:29:37.934Z,24.95
2022-10-08T14:32:05.755Z,22.25
2022-10-08T14:34:32.579Z,19.15
2022-10-08T14:36:59.672Z,19.80
2022-10-08T14:39:26.869Z,20.15
2022-10-08T14:41:54.181Z,18.88
2022-10-08T14:44:22.642Z,17.75
2022-10-08T14:46:52.837Z,16.98
2022-10-08T14:49:20.747Z,15.18
2022-10-08T14:51:48.484Z,13.02
2022-10-08T14:54:15.738Z,13.32
2022-10-08T14:56:43.153Z,12.68
2022-10-08T14:59:11.309Z,13.80
2022-10-08T15:01:38.830Z,13.50
2022-10-08T15:04:06.595Z,13.85
2022-10-08T15:06:34.164Z,12.55
2022-10-08T15:09:01.086Z,11.80
2022-10-08T15:11:27.987Z,14.63
2022-10-08T15:13:55.605Z,14.98
2022-10-08T15:16:22.876Z,13.35
2022-10-08T15:18:49.938Z,11.23
2022-10-08T15:21:16.778Z,12.13
2022-10-08T15:23:43.613Z,12.55
2022-10-08T15:26:16.716Z,11.57
2022-10-08T15:28:46.116Z,12.77
2022-10-08T15:31:18.385Z,16.60
2022-10-08T15:33:48.055Z,14.00
2022-10-08T15:36:18.939Z,14.10
2022-10-08T15:38:47.086Z,15.40
2022-10-08T15:41:19.764Z,15.60
2022-10-08T15:43:46.915Z,16.17
2022-10-08T15:46:18.150Z,14.07
2022-10-08T15:48:56.519Z,14.38
2022-10-08T15:51:24.759Z,14.57
2022-10-08T15:53:51.643Z,14.98
2022-10-08T15:56:18.457Z,16.17
2022-10-08T15:58:50.736Z,15.40
2022-10-08T16:01:21.085Z,16.27
2022-10-08T16:03:50.334Z,16.38
2022-10-08T16:06:20.124Z,14.55
2022-10-08T16:08:47.320Z,15.93
2022-10-08T16:11:19.982Z,15.85
2022-10-08T16:13:50.055Z,16.15
2022-10-08T16:16:17.975Z,15.07
2022-10-08T16:18:47.040Z,17.77
2022-10-08T16:21:14.241Z,18.83
2022-10-08T16:23:41.140Z,18.88
2022-10-08T16:26:11.107Z,18.83
2022-10-08T16:28:40.740Z,18.65
2022-10-08T16:31:08.669Z,17.33
2022-10-08T16:33:35.604Z,17.58
2022-10-08T16:36:05.415Z,17.50
2022-10-08T16:38:38.674Z,18.33
2022-10-08T16:41:12.844Z,18.10
2022-10-08T16:43:39.877Z,17.27
2022-10-08T16:46:14.332Z,19.08
2022-10-08T16:48:41.275Z,17.35
2022-10-08T16:51:08.150Z,16.88
2022-10-08T16:53:35.050Z,18.92
2022-10-08T16:56:04.085Z,17.80
2022-10-08T16:58:30.936Z,18.05
2022-10-08T17:00:57.926Z,19.35
2022-10-08T17:03:24.830Z,20.48
2022-10-08T17:05:51.620Z,17.02
2022-10-08T17:08:18.435Z,20.13
2022-10-08T17:10:45.336Z,17.42
2022-10-08T17:13:12.154Z,18.05
2022-10-08T17:15:39.089Z,18.38
2022-10-08T17:18:06.142Z,18.02
2022-10-08T17:20:33.092Z,16.67
2022-10-08T17:22:59.969Z,17.27
2022-10-08T17:25:26.976Z,17.25
2022-10-08T17:27:53.727Z,16.85
2022-10-08T17:30:20.574Z,17.40
2022-10-08T17:32:47.630Z,17.08
2022-10-08T17:35:14.821Z,16.45
2022-10-08T17:37:41.800Z,17.35
2022-10-08T17:40:09.210Z,17.00
2022-10-08T17:42:36.026Z,16.63
2022-10-08T17:45:03.005Z,17.00
2022-10-08T17:47:29.832Z,15.68
2022-10-08T17:49:56.674Z,16.80
2022-10-08T17:52:23.467Z,16.77
2022-10-08T17:54:50.300Z,15.32
2022-10-08T17:57:17.135Z,16.02
2022-10-08T17:59:43.904Z,17.42
2022-10-08T18:02:10.902Z,17.65
2022-10-08T18:04:37.937Z,18.15
2022-10-08T18:07:04.909Z,16.88
2022-10-08T18:09:32.557Z,16.50
2022-10-08T18:11:59.383Z,18.92
2022-10-08T18:14:26.175Z,19.73
2022-10-08T18:16:53.262Z,18.25
2022-10-08T18:19:20.343Z,17.55
2022-10-08T18:21:47.241Z,17.67
2022-10-08T18:24:15.142Z,16.92
2022-10-08T18:26:42.188Z,17.80
2022-10-08T18:29:11.998Z,16.80
2022-10-08T18:31:40.952Z,15.77
2022-10-08T18:34:11.727Z,16.85
2022-10-08T18:36:39.195Z,16.42
2022-10-08T18:39:10.117Z,18.10
2022-10-08T18:41:41.174Z,17.83
2022-10-08T18:44:12.386Z,17.63
2022-10-08T18:46:42.281Z,16.52
2022-10-08T18:49:12.190Z,17.38
2022-10-08T18:51:39.614Z,16.73
2022-10-08T18:54:07.814Z,15.93
2022-10-08T18:56:38.596Z,17.10
2022-10-08T18:59:08.590Z,17.02
2022-10-08T19:01:38.413Z,17.35
2022-10-08T19:04:08.964Z,15.95
2022-10-08T19:06:38.351Z,18.02
2022-10-08T19:09:06.783Z,18.40
2022-10-08T19:11:44.465Z,18.38
2022-10-08T19:14:14.909Z,16.70
2022-10-08T19:16:42.197Z,15.82
2022-10-08T19:19:20.933Z,16.55
2022-10-08T19:21:48.574Z,16.13
2022-10-08T19:24:21.727Z,16.88
2022-10-08T19:26:49.177Z,16.42
2022-10-08T19:29:36.003Z,18.08
2022-10-08T19:32:03.152Z,17.95
2022-10-08T19:34:30.275Z,18.73
2022-10-08T19:36:57.205Z,18.13
2022-10-08T19:39:27.527Z,19.70
2022-10-08T19:41:54.649Z,17.52
2022-10-08T19:44:22.783Z,18.98
2022-10-08T19:46:49.781Z,17.08
2022-10-08T19:49:20.263Z,18.23
2022-10-08T19:51:47.359Z,17.83
2022-10-08T19:54:15.729Z,18.73
2022-10-08T19:56:42.595Z,17.23
2022-10-08T19:59:10.670Z,18.42
2022-10-08T20:01:39.226Z,18.33
2022-10-08T20:04:07.896Z,16.90
2022-10-08T20:06:39.089Z,17.20
2022-10-08T20:09:07.283Z,17.10
2022-10-08T20:11:34.359Z,16.50
2022-10-08T20:14:01.620Z,17.70
2022-10-08T20:16:32.101Z,18.80
2022-10-08T20:19:01.517Z,19.10
2022-10-08T20:21:30.711Z,19.23
2022-10-08T20:23:57.700Z,18.75
2022-10-08T20:26:30.061Z,20.40
2022-10-08T20:28:59.403Z,19.48
2022-10-08T20:31:32.189Z,21.88
2022-10-08T20:34:01.553Z,18.58
2022-10-08T20:36:28.758Z,18.10
2022-10-08T20:38:56.363Z,20.20
2022-10-08T20:41:28.100Z,18.98
2022-10-08T20:44:00.525Z,21.45
2022-10-08T20:46:27.773Z,20.67
2022-10-08T20:48:54.857Z,20.92
2022-10-08T20:51:23.884Z,20.13
2022-10-08T20:53:52.862Z,19.98
2022-10-08T20:56:21.951Z,19.83
2022-10-08T20:58:49.596Z,19.15
2022-10-08T21:01:24.521Z,18.10
2022-10-08T21:03:52.197Z,18.33
2022-10-08T21:06:22.132Z,18.42
2022-10-08T21:08:50.738Z,16.25
2022-10-08T21:11:21.096Z,19.33
2022-10-08T21:13:48.892Z,18.48
2022-10-08T21:16:21.879Z,18.23
2022-10-08T21:18:51.341Z,18.87
2022-10-08T21:21:19.762Z,18.52
2022-10-08T21:23:49.029Z,18.55
2022-10-08T21:26:24.207Z,16.88
2022-10-08T21:28:55.008Z,19.37
2022-10-08T21:31:22.966Z,18.50
2022-10-08T21:33:51.837Z,17.92
2022-10-08T21:36:21.466Z,19.05
2022-10-08T21:38:48.696Z,17.70
2022-10-08T21:41:17.449Z,16.23
2022-10-08T21:43:50.239Z,17.55
2022-10-08T21:46:19.745Z,19.27
2022-10-08T21:48:47.609Z,18.38
2022-10-08T21:51:17.446Z,19.90
2022-10-08T21:53:47.122Z,18.83
2022-10-08T21:56:16.771Z,19.15
2022-10-08T21:58:46.242Z,18.63
2022-10-08T22:01:27.859Z,17.10
2022-10-08T22:03:55.012Z,17.37
2022-10-08T22:06:22.509Z,17.43
2022-10-08T22:08:50.267Z,17.33
2022-10-08T22:11:17.729Z,18.40
2022-10-08T22:13:44.735Z,17.95
2022-10-08T22:16:13.395Z,17.63
2022-10-08T22:18:40.808Z,18.13
2022-10-08T22:21:11.540Z,17.42
2022-10-08T22:23:38.881Z,20.73
2022-10-08T22:26:09.542Z,20.23
2022-10-08T22:28:37.571Z,19.73
2022-10-08T22:31:06.621Z,19.02
2022-10-08T22:33:34.230Z,19.50
2022-10-08T22:36:06.594Z,19.63
2022-10-08T22:38:36.146Z,19.48
2022-10-08T22:41:08.780Z,19.53
2022-10-08T22:43:36.823Z,18.63
2022-10-08T22:46:05.681Z,18.93
2022-10-08T22:48:33.306Z,18.03
2022-10-08T22:51:05.524Z,17.77
2022-10-08T22:53:32.991Z,17.10
2022-10-08T22:55:59.943Z,18.83
2022-10-08T22:58:26.719Z,19.60
2022-10-08T23:01:08.623Z,18.58
2022-10-08T23:03:36.600Z,19.08
2022-10-08T23:06:10.372Z,20.23
2022-10-08T23:08:37.152Z,19.80
2022-10-08T23:11:04.814Z,22.50
2022-10-08T23:13:32.495Z,20.25
2022-10-08T23:16:05.469Z,21.85
2022-10-08T23:18:36.843Z,20.60
2022-10-08T23:21:06.269Z,21.10
2022-10-08T23:23:33.718Z,21.40
2022-10-08T23:26:03.660Z,21.73
2022-10-08T23:28:32.708Z,21.40
2022-10-08T23:31:17.630Z,20.97
2022-10-08T23:33:47.172Z,20.95
2022-10-08T23:36:23.250Z,20.45
2022-10-08T23:38:50.710Z,19.60
2022-10-08T23:41:18.059Z,21.65
2022-10-08T23:43:47.056Z,21.23
2022-10-08T23:46:16.337Z,21.47
2022-10-08T23:48:43.619Z,23.43
2022-10-08T23:51:11.758Z,22.27
2022-10-08T23:53:39.621Z,22.27
2022-10-08T23:56:07.567Z,22.30
2022-10-08T23:58:34.388Z,22.83
